Time;durP1;ratioP1;P1;durP2;ratioP2;P2;SDS_P1;SDS_P2;PMS_P1;PMS_P2;Temp;Humidity;BMP_temperature;BMP_pressure;BME280_temperature;BME280_humidity;BME280_pressure;Samples;Min_cycle;Max_cycle;Signal;HPM_P1;HPM_P2
2022/06/02 05:23:13;;;;;;;;;;;;;;;22.44;100.00;98486.59;4861010;29;19968;-72
2022/06/02 05:25:52;;;;;;;;;;;;;;;22.15;100.00;98475.66;4850128;29;20340;-72
2022/06/02 05:28:38;;;;;;;;;;;;;;;21.85;100.00;98477.28;4864702;29;19949;-72
2022/06/02 05:31:14;;;;;;;;;;;;;;;21.85;100.00;98473.66;4850797;29;19949;-72
2022/06/02 05:33:51;;;;;;;;;;;;;;;21.82;100.00;98475.34;4864758;29;20278;-72
2022/06/02 05:36:33;;;;;;;;;;;;;;;21.77;100.00;98472.31;4865310;29;20353;-72
2022/06/02 05:39:09;;;;;;;;;;;;;;;21.70;100.00;98478.31;4863045;29;19955;-73
2022/06/02 05:41:55;;;;;;;;;;;;;;;21.67;100.00;98465.78;4859714;29;19952;-72
2022/06/02 05:44:35;;;;;;;;;;;;;;;21.73;100.00;98477.38;4861023;29;19956;-72
2022/06/02 05:47:28;;;;;;;;;;;;;;;21.73;100.00;98475.31;4862414;29;20353;-72
2022/06/02 05:50:03;;;;;;;;;;;;;;;21.83;100.00;98481.84;4856961;29;19950;-72
2022/06/02 05:52:35;;;;;;;;;;;;;;;21.97;100.00;98481.28;4847813;29;19949;-74
2022/06/02 05:55:21;;;;;;;;;;;;;;;22.03;100.00;98482.25;4860454;29;19948;-73
2022/06/02 05:57:52;;;;;;;;;;;;;;;22.11;100.00;98492.06;4840106;29;19947;-73
2022/06/02 06:00:20;;;;;;;;;;;;;;;22.18;100.00;98486.06;4862987;29;19969;-73
2022/06/02 06:03:00;;;;;;;;;;;;;;;22.25;100.00;98480.09;4864371;29;19956;-73
2022/06/02 06:05:41;;;;;;;;;;;;;;;22.35;100.00;98480.91;4864232;29;19952;-73
2022/06/02 06:08:08;;;;;;;;;;;;;;;22.43;100.00;98473.59;4864155;29;19948;-73
2022/06/02 06:10:44;;;;;;;;;;;;;;;22.54;100.00;98473.94;4864200;29;19954;-73
2022/06/02 06:13:27;;;;;;;;;;;;;;;22.59;100.00;98476.16;4864564;29;19949;-73
2022/06/02 06:15:54;;;;;;;;;;;;;;;22.69;100.00;98472.09;4864359;29;19980;-73
2022/06/02 06:18:40;;;;;;;;;;;;;;;22.80;100.00;98470.34;4848305;29;19954;-73
2022/06/02 06:21:07;;;;;;;;;;;;;;;22.97;100.00;98470.78;4862037;29;20473;-73
2022/06/02 06:24:04;;;;;;;;;;;;;;;23.06;100.00;98470.00;4885427;29;19952;-73
2022/06/02 06:26:34;;;;;;;;;;;;;;;23.27;100.00;98474.69;4887432;29;20333;-73
2022/06/02 06:29:13;;;;;;;;;;;;;;;23.26;100.00;98470.25;4899989;29;19952;-73
2022/06/02 06:32:08;;;;;;;;;;;;;;;23.52;100.00;98475.13;4899121;29;19954;-73
2022/06/02 06:34:38;;;;;;;;;;;;;;;23.56;100.00;98479.88;4875501;29;19948;-73
2022/06/02 06:37:16;;;;;;;;;;;;;;;23.76;100.00;98486.63;4905252;29;19965;-73
2022/06/02 06:40:02;;;;;;;;;;;;;;;23.62;100.00;98493.03;4904153;29;20376;-74
2022/06/02 06:42:32;;;;;;;;;;;;;;;23.84;100.00;98493.56;4904850;29;19971;-74
2022/06/02 06:45:03;;;;;;;;;;;;;;;23.91;100.00;98489.59;4905176;29;19958;-74
2022/06/02 06:47:37;;;;;;;;;;;;;;;23.82;100.00;98498.97;4905654;29;19963;-73
2022/06/02 06:50:04;;;;;;;;;;;;;;;23.82;100.00;98498.16;4904586;29;19950;-73
2022/06/02 06:52:40;;;;;;;;;;;;;;;23.80;100.00;98498.66;4904761;29;19947;-73
2022/06/02 06:55:19;;;;;;;;;;;;;;;23.86;100.00;98496.75;4905158;29;19959;-73
2022/06/02 06:58:10;;;;;;;;;;;;;;;23.98;100.00;98495.75;4904819;29;19953;-73
2022/06/02 07:00:42;;;;;;;;;;;;;;;24.08;100.00;98493.66;4896516;29;19971;-73
2022/06/02 07:03:27;;;;;;;;;;;;;;;23.85;100.00;98492.28;4895392;29;19948;-74
2022/06/02 07:05:59;;;;;;;;;;;;;;;23.72;100.00;98494.56;4905830;29;20363;-73
2022/06/02 07:08:34;;;;;;;;;;;;;;;23.84;100.00;98487.06;4887613;29;19954;-73
2022/06/02 07:14:11;;;;;;;;;;;;;;;23.86;100.00;98498.81;4904627;29;19956;-73
2022/06/02 07:16:57;;;;;;;;;;;;;;;23.73;100.00;98507.56;4915063;29;19950;-73
2022/06/02 07:19:32;;;;;;;;;;;;;;;23.84;100.00;98493.56;4912441;29;20324;-73
2022/06/02 07:22:04;;;;;;;;;;;;;;;23.83;100.00;98511.97;4904846;29;19975;-73
2022/06/02 07:24:34;;;;;;;;;;;;;;;23.79;100.00;98519.94;4904453;29;19982;-73
2022/06/02 07:27:13;;;;;;;;;;;;;;;23.72;100.00;98523.13;4904501;29;19951;-73
2022/06/02 07:29:43;;;;;;;;;;;;;;;23.76;100.00;98518.03;4897753;29;20352;-74
2022/06/02 07:32:29;;;;;;;;;;;;;;;23.93;100.00;98510.69;4910884;29;19951;-73
2022/06/02 07:35:16;;;;;;;;;;;;;;;24.02;100.00;98504.13;4900880;29;20348;-73
2022/06/02 07:37:54;;;;;;;;;;;;;;;24.10;100.00;98509.03;4890160;29;19948;-73
2022/06/02 07:40:36;;;;;;;;;;;;;;;24.06;100.00;98504.75;4904067;29;20391;-73
2022/06/02 07:43:22;;;;;;;;;;;;;;;24.06;100.00;98505.50;4903284;29;19959;-74
2022/06/02 07:45:55;;;;;;;;;;;;;;;24.30;100.00;98513.38;4903562;29;19949;-74
2022/06/02 07:48:22;;;;;;;;;;;;;;;24.37;100.00;98513.00;4904476;29;19957;-73
2022/06/02 07:50:55;;;;;;;;;;;;;;;24.37;100.00;98510.16;4903981;29;19979;-73
2022/06/02 07:53:31;;;;;;;;;;;;;;;24.50;100.00;98520.06;4904042;29;19957;-74
2022/06/02 07:56:04;;;;;;;;;;;;;;;24.49;100.00;98529.13;4904134;29;19952;-73
2022/06/02 07:58:57;;;;;;;;;;;;;;;24.51;100.00;98521.66;4887663;29;19952;-73
2022/06/02 08:01:44;;;;;;;;;;;;;;;24.49;100.00;98524.22;4903501;29;19969;-73
2022/06/02 08:04:32;;;;;;;;;;;;;;;24.72;100.00;98519.75;4903522;29;19949;-73
2022/06/02 08:07:03;;;;;;;;;;;;;;;24.78;100.00;98520.69;4903863;29;19951;-74
2022/06/02 08:09:43;;;;;;;;;;;;;;;24.82;100.00;98529.09;4903667;29;19953;-73
2022/06/02 08:12:11;;;;;;;;;;;;;;;24.99;100.00;98528.13;4904040;29;19957;-73
2022/06/02 08:14:44;;;;;;;;;;;;;;;25.09;100.00;98532.50;4903539;29;19953;-73
2022/06/02 08:17:34;;;;;;;;;;;;;;;25.07;100.00;98528.56;4874544;29;19960;-74
2022/06/02 08:20:07;;;;;;;;;;;;;;;25.08;100.00;98530.16;4877882;29;20241;-73
2022/06/02 08:23:01;;;;;;;;;;;;;;;25.13;100.00;98526.59;4903915;29;19978;-73
2022/06/02 08:25:33;;;;;;;;;;;;;;;25.25;100.00;98545.56;4882494;29;19951;-73
2022/06/02 08:28:18;;;;;;;;;;;;;;;25.25;100.00;98549.22;4903314;29;19950;-74
2022/06/02 08:30:48;;;;;;;;;;;;;;;25.25;100.00;98548.44;4886153;29;19957;-74
2022/06/02 08:33:16;;;;;;;;;;;;;;;25.32;100.00;98543.13;4894337;29;19953;-73
2022/06/02 08:35:44;;;;;;;;;;;;;;;25.13;100.00;98538.06;4903231;29;19955;-74
2022/06/02 08:38:29;;;;;;;;;;;;;;;25.30;100.00;98536.31;4905834;29;19981;-73
2022/06/02 08:41:28;;;;;;;;;;;;;;;25.13;100.00;98543.78;4897757;29;19966;-74
2022/06/02 08:44:02;;;;;;;;;;;;;;;25.06;100.00;98549.88;4898582;29;19956;-72
2022/06/02 08:46:29;;;;;;;;;;;;;;;25.14;100.00;98549.00;4902384;29;19949;-71
2022/06/02 08:48:56;;;;;;;;;;;;;;;25.10;100.00;98551.25;4900223;29;20342;-72
2022/06/02 08:51:41;;;;;;;;;;;;;;;25.22;100.00;98541.63;4880070;29;19957;-72
2022/06/02 08:54:38;;;;;;;;;;;;;;;25.27;100.00;98543.78;4901329;29;19974;-71
2022/06/02 08:57:26;;;;;;;;;;;;;;;25.39;100.00;98539.88;4902492;29;19958;-70
2022/06/02 08:59:53;;;;;;;;;;;;;;;25.43;100.00;98540.44;4896328;29;19956;-71
2022/06/02 09:02:24;;;;;;;;;;;;;;;25.40;100.00;98538.59;4899256;29;19964;-71
2022/06/02 09:05:10;;;;;;;;;;;;;;;25.39;100.00;98533.34;4901686;29;19952;-71
2022/06/02 09:07:38;;;;;;;;;;;;;;;25.38;100.00;98534.63;4900589;29;19974;-71
2022/06/02 09:10:31;;;;;;;;;;;;;;;25.39;100.00;98531.28;4899111;29;19953;-71
2022/06/02 09:13:18;;;;;;;;;;;;;;;25.35;100.00;98533.56;4897958;29;19955;-70
2022/06/02 09:16:04;;;;;;;;;;;;;;;25.40;100.00;98532.06;4897642;29;19947;-71
2022/06/02 09:18:50;;;;;;;;;;;;;;;25.42;100.00;98540.94;4902026;29;20224;-71
2022/06/02 09:21:49;;;;;;;;;;;;;;;25.52;100.00;98547.41;4900712;29;19976;-71
2022/06/02 09:24:22;;;;;;;;;;;;;;;25.29;100.00;98546.16;4896943;29;19948;-72
2022/06/02 09:26:51;;;;;;;;;;;;;;;25.20;100.00;98552.78;4902968;29;19946;-73
2022/06/02 09:29:20;;;;;;;;;;;;;;;25.18;100.00;98551.69;4898776;29;20243;-73
2022/06/02 09:31:53;;;;;;;;;;;;;;;25.34;100.00;98554.84;4899512;29;19955;-73
2022/06/02 09:34:30;;;;;;;;;;;;;;;25.47;100.00;98553.81;4900535;29;19949;-73
2022/06/02 09:37:09;;;;;;;;;;;;;;;25.41;100.00;98551.59;4902373;29;19953;-73
2022/06/02 09:39:48;;;;;;;;;;;;;;;25.30;100.00;98554.28;4902032;29;19960;-73
2022/06/02 09:42:21;;;;;;;;;;;;;;;25.37;100.00;98550.22;4901272;29;19964;-72
2022/06/02 09:45:10;;;;;;;;;;;;;;;25.42;100.00;98556.06;4902022;29;20219;-72
2022/06/02 09:47:55;;;;;;;;;;;;;;;25.54;100.00;98557.09;4903196;29;19947;-73
2022/06/02 09:50:42;;;;;;;;;;;;;;;25.63;100.00;98559.06;4875041;29;20366;-72
2022/06/02 09:53:28;;;;;;;;;;;;;;;25.57;100.00;98555.31;4899390;29;19956;-73
2022/06/02 09:56:01;;;;;;;;;;;;;;;25.70;100.00;98562.31;4898059;29;19952;-73
2022/06/02 09:58:31;;;;;;;;;;;;;;;25.53;100.00;98560.44;4901519;29;20250;-70
2022/06/02 10:01:01;;;;;;;;;;;;;;;25.56;100.00;98557.38;4901707;29;19949;-70
2022/06/02 10:03:28;;;;;;;;;;;;;;;25.64;100.00;98554.91;4900075;29;19952;-71
2022/06/02 10:05:59;;;;;;;;;;;;;;;25.39;100.00;98565.63;4899498;29;19955;-73
2022/06/02 10:08:38;;;;;;;;;;;;;;;25.53;100.00;98566.19;4899609;29;19948;-72
2022/06/02 10:11:09;;;;;;;;;;;;;;;25.52;100.00;98565.38;4891040;29;20354;-72
2022/06/02 10:13:45;;;;;;;;;;;;;;;25.46;100.00;98560.84;4900080;29;19950;-73
2022/06/02 10:16:39;;;;;;;;;;;;;;;25.68;100.00;98549.75;4895847;29;19959;-73
2022/06/02 10:19:10;;;;;;;;;;;;;;;25.68;100.00;98558.34;4871027;29;20364;-72
2022/06/02 10:21:38;;;;;;;;;;;;;;;25.86;100.00;98563.91;4900548;29;19974;-72
2022/06/02 10:24:10;;;;;;;;;;;;;;;25.72;100.00;98556.09;4898208;29;19949;-72
2022/06/02 10:26:49;;;;;;;;;;;;;;;25.68;100.00;98558.34;4899636;29;20339;-72
2022/06/02 10:29:28;;;;;;;;;;;;;;;25.80;100.00;98557.31;4894149;29;19948;-72
2022/06/02 10:32:15;;;;;;;;;;;;;;;25.77;100.00;98564.81;4898674;29;19950;-72
2022/06/02 10:35:01;;;;;;;;;;;;;;;25.85;100.00;98554.50;4887373;29;19955;-72
2022/06/02 10:37:34;;;;;;;;;;;;;;;25.82;100.00;98551.84;4897788;29;19948;-72
2022/06/02 10:40:01;;;;;;;;;;;;;;;25.64;100.00;98567.16;4897446;29;19952;-72
2022/06/02 10:42:49;;;;;;;;;;;;;;;25.54;100.00;98556.28;4896152;29;19972;-72
2022/06/02 10:45:19;;;;;;;;;;;;;;;25.62;100.00;98551.75;4890694;29;19955;-71
2022/06/02 10:47:49;;;;;;;;;;;;;;;25.68;100.00;98550.56;4896850;29;19951;-69
2022/06/02 10:50:36;;;;;;;;;;;;;;;25.81;100.00;98550.25;4897103;29;19954;-91
2022/06/02 10:53:12;;;;;;;;;;;;;;;25.83;100.00;98548.50;4895920;29;19954;-70
2022/06/02 10:55:48;;;;;;;;;;;;;;;25.85;100.00;98545.91;4896614;29;19956;-69
2022/06/02 10:58:34;;;;;;;;;;;;;;;25.79;100.00;98533.59;4897491;29;19955;-70
2022/06/02 11:01:20;;;;;;;;;;;;;;;25.85;100.00;98542.25;4899220;29;20248;-70
2022/06/02 11:03:47;;;;;;;;;;;;;;;25.86;100.00;98532.38;4890546;29;19978;-71
2022/06/02 11:06:33;;;;;;;;;;;;;;;25.90;100.00;98530.09;4898670;29;19951;-70
2022/06/02 11:09:12;;;;;;;;;;;;;;;25.98;100.00;98525.53;4890137;29;19947;-70
2022/06/02 11:11:50;;;;;;;;;;;;;;;26.12;100.00;98527.63;4907056;29;19957;-70
2022/06/02 11:14:23;;;;;;;;;;;;;;;26.10;100.00;98518.69;4900182;29;19948;-70
2022/06/02 11:17:00;;;;;;;;;;;;;;;26.21;100.00;98518.91;4899128;29;20219;-68
2022/06/02 11:19:31;;;;;;;;;;;;;;;26.05;100.00;98511.59;4897687;29;19951;-70
2022/06/02 11:22:05;;;;;;;;;;;;;;;26.00;100.00;98509.44;4902223;29;19981;-68
2022/06/02 11:24:51;;;;;;;;;;;;;;;25.98;100.00;98514.88;4895203;29;19948;-68
2022/06/02 11:27:37;;;;;;;;;;;;;;;25.93;100.00;98514.78;4889076;29;19948;-68
2022/06/02 11:30:08;;;;;;;;;;;;;;;25.93;100.00;98504.13;4900277;29;19950;-70
2022/06/02 11:32:59;;;;;;;;;;;;;;;25.85;100.00;98499.28;4883988;29;19964;-70
2022/06/02 11:35:30;;;;;;;;;;;;;;;25.66;100.00;98500.78;4891104;29;19951;-70
2022/06/02 11:38:01;;;;;;;;;;;;;;;25.73;100.00;98500.38;4896363;29;19951;-70
2022/06/02 11:40:56;;;;;;;;;;;;;;;25.80;100.00;98495.03;4889163;29;20350;-70
2022/06/02 11:43:38;;;;;;;;;;;;;;;25.68;100.00;98496.13;4902109;29;19978;-72
2022/06/02 11:46:11;;;;;;;;;;;;;;;25.72;100.00;98488.16;4901641;29;19953;-72
2022/06/02 11:48:41;;;;;;;;;;;;;;;25.86;100.00;98483.69;4899097;29;19947;-72
2022/06/02 11:51:35;;;;;;;;;;;;;;;26.17;100.00;98483.91;4897641;29;19986;-72
2022/06/02 11:54:17;;;;;;;;;;;;;;;26.12;100.00;98481.75;4901016;29;19957;-72
2022/06/02 11:56:50;;;;;;;;;;;;;;;26.05;100.00;98482.94;4904295;29;19952;-72
2022/06/02 11:59:30;;;;;;;;;;;;;;;26.00;100.00;98479.97;4904215;29;20372;-71
2022/06/02 12:02:03;;;;;;;;;;;;;;;26.04;100.00;98474.84;4901274;29;20262;-72
2022/06/02 12:04:43;;;;;;;;;;;;;;;25.94;100.00;98479.91;4908088;29;19959;-72
2022/06/02 12:07:23;;;;;;;;;;;;;;;25.99;100.00;98478.41;4901766;29;19952;-70
2022/06/02 12:09:55;;;;;;;;;;;;;;;26.09;100.00;98477.78;4903376;29;19948;-70
2022/06/02 12:12:45;;;;;;;;;;;;;;;26.06;100.00;98472.28;4896922;29;19955;-72
2022/06/02 12:15:15;;;;;;;;;;;;;;;26.10;100.00;98470.78;4900912;29;19961;-72
2022/06/02 12:17:45;;;;;;;;;;;;;;;26.20;100.00;98473.53;4901944;29;19957;-70
2022/06/02 12:20:19;;;;;;;;;;;;;;;26.08;100.00;98470.47;4901261;29;19954;-70
2022/06/02 12:23:06;;;;;;;;;;;;;;;26.15;100.00;98465.63;4883190;29;19966;-70
2022/06/02 12:25:39;;;;;;;;;;;;;;;25.92;100.00;98470.25;4897040;29;19954;-69
2022/06/02 12:28:13;;;;;;;;;;;;;;;26.01;100.00;98465.19;4903457;29;19950;-70
2022/06/02 12:30:40;;;;;;;;;;;;;;;25.90;100.00;98465.00;4900888;29;19981;-72
2022/06/02 12:33:19;;;;;;;;;;;;;;;26.04;100.00;98458.41;4903248;29;19959;-72
2022/06/02 12:36:05;;;;;;;;;;;;;;;26.04;100.00;98464.16;4902869;29;19956;-72
2022/06/02 12:38:51;;;;;;;;;;;;;;;26.04;100.00;98461.28;4899128;29;19959;-72
2022/06/02 12:41:39;;;;;;;;;;;;;;;25.91;100.00;98452.25;4901878;29;20475;-72
2022/06/02 12:44:25;;;;;;;;;;;;;;;25.90;100.00;98449.88;4903012;29;19973;-72
2022/06/02 12:46:55;;;;;;;;;;;;;;;25.91;100.00;98460.06;4897231;29;19949;-72
2022/06/02 12:49:42;;;;;;;;;;;;;;;25.86;100.00;98457.88;4902960;29;19949;-72
2022/06/02 12:52:38;;;;;;;;;;;;;;;25.89;100.00;98460.56;4902504;29;19954;-72
2022/06/02 12:55:27;;;;;;;;;;;;;;;25.92;100.00;98464.50;4901945;29;19955;-72
2022/06/02 12:58:10;;;;;;;;;;;;;;;25.97;100.00;98460.91;4901727;29;19954;-72
2022/06/02 13:00:37;;;;;;;;;;;;;;;25.93;100.00;98466.06;4903311;29;19949;-72
2022/06/02 13:03:07;;;;;;;;;;;;;;;25.86;100.00;98463.63;4902573;29;19963;-70
2022/06/02 13:05:40;;;;;;;;;;;;;;;25.98;100.00;98457.56;4902503;29;19954;-70
2022/06/02 13:08:23;;;;;;;;;;;;;;;26.12;100.00;98453.09;4902704;29;19947;-70
2022/06/02 13:10:53;;;;;;;;;;;;;;;25.99;100.00;98458.34;4902616;29;19952;-70
2022/06/02 13:13:21;;;;;;;;;;;;;;;26.13;100.00;98457.56;4900647;29;19957;-70
2022/06/02 13:16:06;;;;;;;;;;;;;;;26.24;100.00;98462.66;4901965;29;19960;-72
2022/06/02 13:18:46;;;;;;;;;;;;;;;26.19;100.00;98464.13;4901838;29;19953;-72
2022/06/02 13:21:32;;;;;;;;;;;;;;;26.15;100.00;98459.91;4909798;29;19980;-72
2022/06/02 13:24:02;;;;;;;;;;;;;;;26.17;100.00;98458.13;4903824;29;20241;-72
2022/06/02 13:26:39;;;;;;;;;;;;;;;26.16;100.00;98458.63;4908079;29;20348;-72
2022/06/02 13:29:09;;;;;;;;;;;;;;;26.27;100.00;98448.09;4899969;29;19952;-72
2022/06/02 13:31:55;;;;;;;;;;;;;;;26.27;100.00;98450.97;4893520;29;19959;-70
2022/06/02 13:34:41;;;;;;;;;;;;;;;26.32;100.00;98455.19;4895721;29;19977;-70
2022/06/02 13:37:24;;;;;;;;;;;;;;;26.27;100.00;98442.38;4898013;29;19951;-71
2022/06/02 13:40:15;;;;;;;;;;;;;;;26.46;100.00;98455.13;4883584;29;19947;-72
2022/06/02 13:42:54;;;;;;;;;;;;;;;26.35;100.00;98449.25;4901922;29;19969;-72
2022/06/02 13:45:28;;;;;;;;;;;;;;;26.39;100.00;98441.22;4890078;29;19950;-72
2022/06/02 13:48:34;;;;;;;;;;;;;;;26.45;100.00;98441.31;4899797;29;19967;-72
2022/06/02 13:51:07;;;;;;;;;;;;;;;26.45;100.00;98442.09;4839897;29;20266;-72
2022/06/02 13:57:30;;;;;;;;;;;;;;;26.34;100.00;98435.41;4838337;29;19955;-72
2022/06/02 13:59:31;;;;;;;;;;;;;;;26.29;100.00;98425.44;4894596;29;20359;-72
2022/06/02 14:02:17;;;;;;;;;;;;;;;26.31;100.00;98428.59;4894670;29;19977;-72
2022/06/02 14:05:00;;;;;;;;;;;;;;;26.38;100.00;98431.06;4897345;29;19978;-75
2022/06/02 14:07:35;;;;;;;;;;;;;;;26.37;100.00;98425.81;4888994;29;19946;-72
2022/06/02 14:10:18;;;;;;;;;;;;;;;26.37;100.00;98420.06;4912924;29;19966;-72
2022/06/02 14:13:04;;;;;;;;;;;;;;;26.44;100.00;98417.56;4897576;29;19962;-73
2022/06/02 14:15:40;;;;;;;;;;;;;;;26.48;100.00;98415.25;4901363;29;19951;-72
2022/06/02 14:18:17;;;;;;;;;;;;;;;26.34;100.00;98416.13;4895869;29;19956;-73
2022/06/02 14:21:04;;;;;;;;;;;;;;;26.37;100.00;98406.53;4901411;29;20545;-72
2022/06/02 14:23:38;;;;;;;;;;;;;;;26.31;100.00;98411.38;4901161;29;19963;-72
2022/06/02 14:26:16;;;;;;;;;;;;;;;26.38;100.00;98404.47;4903348;29;19954;-72
2022/06/02 14:28:43;;;;;;;;;;;;;;;26.34;100.00;98401.78;4896155;29;20372;-72
2022/06/02 14:31:10;;;;;;;;;;;;;;;26.39;100.00;98403.94;4908010;29;19956;-72
2022/06/02 14:33:40;;;;;;;;;;;;;;;26.47;100.00;98404.31;4903574;29;19947;-72
2022/06/02 14:36:20;;;;;;;;;;;;;;;26.41;100.00;98397.72;4897573;29;20358;-72
2022/06/02 14:38:47;;;;;;;;;;;;;;;26.51;100.00;98402.00;4898804;29;20247;-72
2022/06/02 14:41:26;;;;;;;;;;;;;;;26.58;100.00;98405.22;4905740;29;19964;-72
2022/06/02 14:44:08;;;;;;;;;;;;;;;26.37;100.00;98394.25;4899908;29;20268;-72
2022/06/02 14:47:04;;;;;;;;;;;;;;;26.40;100.00;98394.06;4900220;29;20212;-72
2022/06/02 14:49:49;;;;;;;;;;;;;;;26.43;100.00;98390.19;4874267;29;19956;-72
2022/06/02 14:52:17;;;;;;;;;;;;;;;26.30;100.00;98394.69;4901375;29;19976;-72
2022/06/02 14:54:47;;;;;;;;;;;;;;;26.35;100.00;98394.78;4895109;29;20347;-72
2022/06/02 14:57:23;;;;;;;;;;;;;;;26.45;100.00;98396.22;4901185;29;19965;-72
2022/06/02 14:59:50;;;;;;;;;;;;;;;26.52;100.00;98394.97;4901304;29;19951;-72
2022/06/02 15:02:32;;;;;;;;;;;;;;;26.42;100.00;98393.53;4903285;29;19959;-73
2022/06/02 15:05:11;;;;;;;;;;;;;;;26.39;100.00;98392.47;4903579;29;19976;-73
2022/06/02 15:07:57;;;;;;;;;;;;;;;26.28;100.00;98383.75;4914809;29;20370;-71
2022/06/02 15:10:42;;;;;;;;;;;;;;;26.33;100.00;98380.16;4904010;29;19952;-71
2022/06/02 15:13:23;;;;;;;;;;;;;;;26.28;100.00;98375.16;4904389;29;20351;-71
2022/06/02 15:15:53;;;;;;;;;;;;;;;26.31;100.00;98379.84;4903232;29;19956;-71
2022/06/02 15:18:26;;;;;;;;;;;;;;;26.30;100.00;98375.44;4894079;29;19950;-71
2022/06/02 15:21:08;;;;;;;;;;;;;;;26.26;100.00;98374.06;4905323;29;19971;-71
2022/06/02 15:23:44;;;;;;;;;;;;;;;26.19;100.00;98372.41;4900797;29;19966;-71
2022/06/02 15:26:20;;;;;;;;;;;;;;;26.17;100.00;98371.31;4903270;29;19955;-71
2022/06/02 15:28:47;;;;;;;;;;;;;;;26.22;100.00;98365.69;4900925;29;19960;-71
2022/06/02 15:31:16;;;;;;;;;;;;;;;26.22;100.00;98370.63;4898056;29;19947;-71
2022/06/02 15:33:52;;;;;;;;;;;;;;;26.19;100.00;98372.41;4900956;29;19949;-71
2022/06/02 15:36:31;;;;;;;;;;;;;;;26.15;100.00;98371.84;4923051;29;19946;-71
2022/06/02 15:39:17;;;;;;;;;;;;;;;26.11;100.00;98371.28;4923671;29;19952;-71
2022/06/02 15:41:44;;;;;;;;;;;;;;;26.11;100.00;98371.28;4914695;29;20256;-71
2022/06/02 15:44:14;;;;;;;;;;;;;;;26.06;100.00;98374.81;4894218;29;19970;-71
2022/06/02 15:47:01;;;;;;;;;;;;;;;26.05;100.00;98379.75;4899736;29;20252;-71
2022/06/02 15:49:48;;;;;;;;;;;;;;;26.04;100.00;98375.31;4897555;29;19948;-71
2022/06/02 15:52:25;;;;;;;;;;;;;;;26.14;100.00;98367.38;4911383;29;20270;-72
2022/06/02 15:55:11;;;;;;;;;;;;;;;26.13;100.00;98365.03;4904458;29;19965;-71
2022/06/02 15:57:38;;;;;;;;;;;;;;;26.06;100.00;98375.63;4903964;29;19950;-71
2022/06/02 16:00:09;;;;;;;;;;;;;;;26.04;100.00;98371.69;4902134;29;19955;-71
2022/06/02 16:02:42;;;;;;;;;;;;;;;26.02;100.00;98371.38;4904454;29;19965;-71
2022/06/02 16:05:25;;;;;;;;;;;;;;;26.03;100.00;98367.22;4903741;29;19967;-71
2022/06/02 16:08:03;;;;;;;;;;;;;;;26.00;100.00;98368.22;4903305;29;20368;-70
2022/06/02 16:13:42;;;;;;;;;;;;;;;25.93;100.00;98374.38;4901814;29;19960;-71
2022/06/02 16:16:21;;;;;;;;;;;;;;;25.87;100.00;98377.16;4901789;29;19960;-71
2022/06/02 16:19:07;;;;;;;;;;;;;;;25.90;100.00;98369.63;4903735;29;19951;-71
2022/06/02 16:21:39;;;;;;;;;;;;;;;25.90;100.00;98369.63;4898166;29;20231;-71
2022/06/02 16:24:06;;;;;;;;;;;;;;;25.93;100.00;98368.66;4903972;29;19978;-71
2022/06/02 16:26:54;;;;;;;;;;;;;;;25.92;100.00;98367.09;4903806;29;19951;-71
2022/06/02 16:29:42;;;;;;;;;;;;;;;25.85;100.00;98367.47;4874038;29;19949;-71
2022/06/02 16:32:10;;;;;;;;;;;;;;;25.84;100.00;98365.91;4903992;29;20385;-71
2022/06/02 16:34:56;;;;;;;;;;;;;;;25.77;100.00;98364.28;4902260;29;19951;-71
2022/06/02 16:37:23;;;;;;;;;;;;;;;25.75;100.00;98366.81;4902552;29;19956;-71
2022/06/02 16:40:01;;;;;;;;;;;;;;;25.79;100.00;98366.63;4885835;29;19953;-71
2022/06/02 16:42:36;;;;;;;;;;;;;;;25.74;100.00;98373.84;4903290;29;20374;-71
2022/06/02 16:45:20;;;;;;;;;;;;;;;25.74;100.00;98373.06;4896465;29;19960;-71
2022/06/02 16:47:53;;;;;;;;;;;;;;;25.71;100.00;98368.31;4899350;29;19970;-71
2022/06/02 16:50:41;;;;;;;;;;;;;;;25.67;100.00;98371.41;4901065;29;19951;-71
2022/06/02 16:56:13;;;;;;;;;;;;;;;25.70;100.00;98373.25;4900622;29;19950;-71
2022/06/02 16:58:48;;;;;;;;;;;;;;;25.68;100.00;98378.69;4902268;29;19952;-71
2022/06/02 17:01:34;;;;;;;;;;;;;;;25.63;100.00;98381.50;4907240;29;20206;-71
2022/06/02 17:04:22;;;;;;;;;;;;;;;25.55;100.00;98381.13;4906206;29;20354;-71
2022/06/02 17:06:50;;;;;;;;;;;;;;;25.51;100.00;98377.66;4921355;29;19950;-71
2022/06/02 17:09:17;;;;;;;;;;;;;;;25.51;100.00;98380.53;4922124;29;19959;-71
2022/06/02 17:12:02;;;;;;;;;;;;;;;25.46;100.00;98392.66;4921704;29;19955;-71
2022/06/02 17:14:50;;;;;;;;;;;;;;;25.43;100.00;98390.78;4921580;29;19951;-71
2022/06/02 17:17:35;;;;;;;;;;;;;;;25.42;100.00;98380.63;4921701;29;19951;-71
2022/06/02 17:20:38;;;;;;;;;;;;;;;25.38;100.00;98392.25;4905805;29;19959;-71
2022/06/02 17:23:31;;;;;;;;;;;;;;;25.35;100.00;98395.34;4844911;29;19951;-71
2022/06/02 17:25:58;;;;;;;;;;;;;;;25.31;100.00;98397.59;4898082;29;19974;-71
2022/06/02 17:28:44;;;;;;;;;;;;;;;25.36;100.00;98397.69;4901085;29;19983;-71
2022/06/02 17:31:33;;;;;;;;;;;;;;;25.31;100.00;98391.88;4888917;29;20231;-71
2022/06/02 17:34:04;;;;;;;;;;;;;;;25.23;100.00;98397.22;4902746;29;19969;-71
2022/06/02 17:36:31;;;;;;;;;;;;;;;25.25;100.00;98391.78;4902972;29;20340;-71
2022/06/02 17:39:02;;;;;;;;;;;;;;;25.19;100.00;98399.50;4895621;29;19955;-71
2022/06/02 17:41:29;;;;;;;;;;;;;;;25.14;100.00;98396.53;4902182;29;20257;-71
2022/06/02 17:44:14;;;;;;;;;;;;;;;25.11;100.00;98391.81;4902011;29;19960;-71
2022/06/02 17:47:00;;;;;;;;;;;;;;;25.05;100.00;98393.75;4894736;29;19949;-71
2022/06/02 17:49:31;;;;;;;;;;;;;;;25.03;100.00;98397.13;4902008;29;19954;-70
2022/06/02 17:52:18;;;;;;;;;;;;;;;25.03;100.00;98396.34;4901787;29;20360;-71
2022/06/02 17:54:46;;;;;;;;;;;;;;;24.96;100.00;98405.31;4872937;29;19951;-71
2022/06/02 17:57:16;;;;;;;;;;;;;;;24.96;100.00;98408.19;4900188;29;19962;-71
2022/06/02 17:59:55;;;;;;;;;;;;;;;24.91;100.00;98409.66;4901623;29;19951;-71
2022/06/02 18:02:24;;;;;;;;;;;;;;;24.91;100.00;98406.00;4902004;29;19959;-71
2022/06/02 18:04:52;;;;;;;;;;;;;;;24.83;100.00;98405.59;4901027;29;19967;-71
2022/06/02 18:07:39;;;;;;;;;;;;;;;24.79;100.00;98405.00;4901724;29;19951;-71
2022/06/02 18:10:19;;;;;;;;;;;;;;;24.74;100.00;98403.59;4908598;29;19949;-71
2022/06/02 18:13:09;;;;;;;;;;;;;;;24.71;100.00;98406.63;4901997;29;19952;-71
2022/06/02 18:15:48;;;;;;;;;;;;;;;24.68;100.00;98399.81;4901623;29;19950;-71
2022/06/02 18:18:34;;;;;;;;;;;;;;;24.69;100.00;98406.34;4901953;29;20234;-71
2022/06/02 18:21:05;;;;;;;;;;;;;;;24.64;100.00;98401.31;4901635;29;19979;-71
2022/06/02 18:23:38;;;;;;;;;;;;;;;24.60;100.00;98409.28;4901759;29;20229;-71
2022/06/02 18:26:17;;;;;;;;;;;;;;;24.58;100.00;98409.75;4901020;29;19966;-71
2022/06/02 18:28:54;;;;;;;;;;;;;;;24.57;100.00;98404.53;4901252;29;20275;-71
2022/06/02 18:31:45;;;;;;;;;;;;;;;24.49;100.00;98404.13;4891127;29;20223;-71
2022/06/02 18:34:26;;;;;;;;;;;;;;;24.42;100.00;98403.72;4868391;29;19955;-71
2022/06/02 18:36:56;;;;;;;;;;;;;;;24.34;100.00;98399.63;4887020;29;20403;-71
2022/06/02 18:39:27;;;;;;;;;;;;;;;24.29;100.00;98398.25;4885754;29;19952;-71
2022/06/02 18:42:23;;;;;;;;;;;;;;;24.27;100.00;98408.59;4905241;29;19953;-71
2022/06/02 18:44:59;;;;;;;;;;;;;;;24.24;100.00;98409.56;4884019;29;19975;-71
2022/06/02 18:47:36;;;;;;;;;;;;;;;24.23;100.00;98419.44;4899059;29;19948;-71
2022/06/02 18:50:03;;;;;;;;;;;;;;;24.23;100.00;98413.72;4892950;29;19952;-71
2022/06/02 18:52:37;;;;;;;;;;;;;;;24.23;100.00;98411.66;4905201;29;19949;-71
2022/06/02 18:55:10;;;;;;;;;;;;;;;24.24;100.00;98423.84;4904560;29;20286;-71
2022/06/02 18:57:56;;;;;;;;;;;;;;;24.20;100.00;98414.69;4905238;29;19953;-71
2022/06/02 19:00:27;;;;;;;;;;;;;;;24.16;100.00;98420.56;4888418;29;19950;-71
2022/06/02 19:02:59;;;;;;;;;;;;;;;24.11;100.00;98424.88;4904883;29;19952;-71
2022/06/02 19:05:45;;;;;;;;;;;;;;;24.11;100.00;98433.47;4905569;29;20217;-71